Time,TemperatureF,DewpointF,PressureIn,WindDirection,WindDirectionDegrees,WindSpeedMPH,WindSpeedGustMPH,Humidity,HourlyPrecipIn,Conditions,Clouds,dailyrainin,SoftwareType,DateUTC
2013-08-19 00:01:00,70.4,70.4,30.11,ENE,69,0.0,0.0,100,0.02,,-RA,0.20,VWS V14.01,2013-08-19 04:01:00,
2013-08-19 00:06:00,70.4,70.4,30.11,ENE,69,0.0,0.0,100,0.02,,-RA,0.00,VWS V14.01,2013-08-19 04:06:00,
2013-08-19 00:11:00,70.4,70.4,30.11,ENE,69,0.0,0.0,100,0.02,,-RA,0.00,VWS V14.01,2013-08-19 04:11:00,
2013-08-19 00:16:00,70.4,70.4,30.12,ENE,69,0.0,0.0,100,0.03,,-RA,0.01,VWS V14.01,2013-08-19 04:16:00,
2013-08-19 00:21:00,70.3,70.3,30.12,ENE,69,0.0,0.0,100,0.04,,-RA,0.02,VWS V14.01,2013-08-19 04:21:00,
2013-08-19 00:26:00,70.3,70.3,30.12,ENE,69,0.0,0.0,100,0.04,,-RA,0.02,VWS V14.01,2013-08-19 04:26:00,
2013-08-19 00:31:00,70.3,70.3,30.12,ENE,69,0.0,0.0,100,0.05,,-RA,0.03,VWS V14.01,2013-08-19 04:31:00,
2013-08-19 00:36:00,70.3,70.3,30.12,ENE,69,0.0,0.0,100,0.05,,-RA,0.03,VWS V14.01,2013-08-19 04:36:00,
2013-08-19 00:41:00,70.3,70.3,30.12,ENE,69,0.0,0.0,100,0.05,,-RA,0.04,VWS V14.01,2013-08-19 04:41:00,
2013-08-19 00:46:00,70.1,70.1,30.11,ENE,69,0.0,0.0,100,0.05,,BKN085,0.04,VWS V14.01,2013-08-19 04:46:00,
2013-08-19 00:51:00,70.1,70.1,30.11,ENE,69,0.0,0.0,100,0.06,,BKN085,0.05,VWS V14.01,2013-08-19 04:51:00,
2013-08-19 00:56:00,70.1,70.1,30.11,ENE,69,0.0,0.0,100,0.06,,BKN085,0.05,VWS V14.01,2013-08-19 04:56:00,
2013-08-19 01:01:00,70.1,70.1,30.11,ENE,69,0.0,0.0,100,0.06,,BKN085,0.06,VWS V14.01,2013-08-19 05:01:00,
2013-08-19 01:06:00,70.1,70.1,30.11,ENE,69,0.0,0.0,100,0.06,,BKN085,0.06,VWS V14.01,2013-08-19 05:06:00,
2013-08-19 01:11:00,70.1,70.1,30.11,ENE,69,0.0,0.0,100,0.07,,BKN085,0.07,VWS V14.01,2013-08-19 05:11:00,
2013-08-19 01:16:00,70.1,70.1,30.10,ENE,69,0.0,0.0,100,0.08,,BKN085,0.08,VWS V14.01,2013-08-19 05:16:00,
2013-08-19 01:21:00,69.9,69.9,30.10,ENE,69,0.0,0.0,100,0.08,,BKN085,0.09,VWS V14.01,2013-08-19 05:21:00,
2013-08-19 01:26:00,69.9,69.9,30.10,ENE,69,0.0,0.0,100,0.08,,BKN085,0.10,VWS V14.01,2013-08-19 05:26:00,
2013-08-19 01:31:00,69.9,69.9,30.10,ENE,69,0.0,0.0,100,0.09,,BKN085,0.11,VWS V14.01,2013-08-19 05:31:00,
2013-08-19 01:36:00,69.9,69.9,30.10,ENE,69,0.0,0.0,100,0.09,,BKN085,0.12,VWS V14.01,2013-08-19 05:36:00,
2013-08-19 01:41:00,69.9,69.9,30.10,ENE,69,0.0,0.0,100,0.10,,BKN085,0.13,VWS V14.01,2013-08-19 05:41:00,
2013-08-19 01:46:00,69.9,69.9,30.09,ENE,69,0.0,0.0,100,0.10,,-RA,0.14,VWS V14.01,2013-08-19 05:46:00,
2013-08-19 01:51:00,69.9,69.9,30.09,ENE,69,0.0,0.0,100,0.10,,-RA,0.14,VWS V14.01,2013-08-19 05:51:00,
2013-08-19 01:56:00,69.9,69.9,30.09,ENE,69,0.0,0.0,100,0.10,,-RA,0.15,VWS V14.01,2013-08-19 05:56:00,
2013-08-19 02:01:00,69.9,69.9,30.09,ENE,69,0.0,0.0,100,0.10,,-RA,0.15,VWS V14.01,2013-08-19 06:01:00,
2013-08-19 02:06:00,69.8,69.8,30.09,ENE,69,0.0,0.0,100,0.10,,-RA,0.16,VWS V14.01,2013-08-19 06:06:00,
2013-08-19 02:11:00,69.8,69.8,30.09,ENE,69,0.0,0.0,100,0.10,,-RA,0.16,VWS V14.01,2013-08-19 06:11:00,
2013-08-19 02:16:00,69.8,69.8,30.09,ENE,69,0.0,0.0,100,0.09,,-RA,0.16,VWS V14.01,2013-08-19 06:16:00,
2013-08-19 02:21:00,69.8,69.8,30.09,ENE,69,0.0,0.0,100,0.08,,-RA,0.16,VWS V14.01,2013-08-19 06:21:00,
2013-08-19 02:26:00,69.8,69.8,30.09,ENE,69,0.0,0.0,100,0.07,,-RA,0.16,VWS V14.01,2013-08-19 06:26:00,
2013-08-19 02:31:00,69.8,69.8,30.08,ENE,69,0.0,0.0,100,0.07,,-RA,0.17,VWS V14.01,2013-08-19 06:31:00,
2013-08-19 02:36:00,69.6,69.6,30.08,ENE,69,0.0,0.0,100,0.06,,-RA,0.17,VWS V14.01,2013-08-19 06:36:00,
2013-08-19 02:41:00,69.6,69.6,30.08,ENE,69,0.0,0.0,100,0.05,,-RA,0.17,VWS V14.01,2013-08-19 06:41:00,
2013-08-19 02:46:00,69.6,69.6,30.08,ENE,69,0.0,0.0,100,0.05,,-RA,0.18,VWS V14.01,2013-08-19 06:46:00,
2013-08-19 02:51:00,69.6,69.6,30.08,ENE,69,0.0,0.0,100,0.04,,-RA,0.18,VWS V14.01,2013-08-19 06:51:00,
2013-08-19 02:56:00,69.6,69.6,30.08,ENE,69,0.0,0.0,100,0.03,,-RA,0.18,VWS V14.01,2013-08-19 06:56:00,
2013-08-19 03:01:00,69.6,69.6,30.08,ENE,69,0.0,0.0,100,0.04,,-RA,0.19,VWS V14.01,2013-08-19 07:01:00,
2013-08-19 03:06:00,69.6,69.6,30.08,ENE,69,0.0,0.0,100,0.04,,-RA,0.19,VWS V14.01,2013-08-19 07:06:00,
2013-08-19 03:11:00,69.6,69.6,30.08,ENE,69,0.0,0.0,100,0.03,,-RA,0.19,VWS V14.01,2013-08-19 07:11:00,
2013-08-19 03:16:00,69.6,69.6,30.06,ENE,69,0.0,0.0,100,0.04,,-RA,0.20,VWS V14.01,2013-08-19 07:16:00,
2013-08-19 03:21:00,69.6,69.6,30.06,ENE,69,0.0,0.0,100,0.04,,-RA,0.20,VWS V14.01,2013-08-19 07:21:00,
2013-08-19 03:26:00,69.6,69.6,30.06,ENE,69,0.0,0.0,100,0.04,,-RA,0.20,VWS V14.01,2013-08-19 07:26:00,
2013-08-19 03:31:00,69.6,69.6,30.06,ENE,69,0.0,0.0,100,0.04,,-RA,0.20,VWS V14.01,2013-08-19 07:31:00,
2013-08-19 03:36:00,69.4,69.4,30.06,ENE,69,0.0,0.0,100,0.03,,-RA,0.20,VWS V14.01,2013-08-19 07:36:00,
2013-08-19 03:41:00,69.4,69.4,30.06,ENE,69,0.0,0.0,100,0.04,,-RA,0.21,VWS V14.01,2013-08-19 07:41:00,
2013-08-19 03:46:00,69.4,69.4,30.06,ENE,69,0.0,0.0,100,0.04,,-RA,0.21,VWS V14.01,2013-08-19 07:46:00,
2013-08-19 03:51:00,69.4,69.4,30.06,ENE,69,0.0,0.0,100,0.03,,-RA,0.21,VWS V14.01,2013-08-19 07:51:00,
2013-08-19 03:56:00,69.4,69.4,30.06,ENE,69,0.0,0.0,100,0.03,,-RA,0.21,VWS V14.01,2013-08-19 07:56:00,
2013-08-19 04:00:00,69.4,69.4,30.06,ENE,69,0.0,0.0,100,0.03,,-RA,0.21,VWS V14.01,2013-08-19 08:00:00,
2013-08-19 04:05:00,69.4,69.4,30.06,ENE,69,0.0,0.0,100,0.02,,-RA,0.21,VWS V14.01,2013-08-19 08:05:00,
2013-08-19 04:10:00,69.4,69.4,30.06,ENE,69,0.0,0.0,100,0.03,,-RA,0.22,VWS V14.01,2013-08-19 08:10:00,
2013-08-19 04:15:00,69.4,69.4,30.05,ENE,69,0.0,0.0,100,0.03,,-RA,0.22,VWS V14.01,2013-08-19 08:15:00,
2013-08-19 04:20:00,69.4,69.4,30.05,ENE,69,0.0,0.0,100,0.02,,-RA,0.22,VWS V14.01,2013-08-19 08:20:00,
2013-08-19 04:25:00,69.4,69.4,30.05,ENE,69,0.0,0.0,100,0.02,,-RA,0.22,VWS V14.01,2013-08-19 08:25:00,
2013-08-19 04:30:00,69.4,69.4,30.04,ENE,69,0.0,0.0,100,0.02,,-RA,0.22,VWS V14.01,2013-08-19 08:30:00,
2013-08-19 04:35:00,69.4,69.4,30.04,ENE,69,0.0,0.0,100,0.02,,-RA,0.22,VWS V14.01,2013-08-19 08:35:00,
2013-08-19 04:40:00,69.4,69.4,30.04,ENE,69,0.0,0.0,100,0.02,,-RA,0.22,VWS V14.01,2013-08-19 08:40:00,
2013-08-19 04:45:00,69.4,69.4,30.04,ENE,69,0.0,0.0,100,0.01,,-RA,0.22,VWS V14.01,2013-08-19 08:45:00,
2013-08-19 04:50:00,69.3,69.3,30.04,ENE,69,0.0,0.0,100,0.02,,-RA,0.23,VWS V14.01,2013-08-19 08:50:00,
2013-08-19 04:55:00,69.3,69.3,30.04,ENE,69,0.0,0.0,100,0.02,,-RA,0.23,VWS V14.01,2013-08-19 08:55:00,
2013-08-19 05:00:00,69.3,69.3,30.04,ENE,69,0.0,0.0,100,0.02,,-RA,0.23,VWS V14.01,2013-08-19 09:00:00,
2013-08-19 05:05:00,69.3,69.3,30.04,ENE,69,0.0,0.0,100,0.02,,-RA,0.23,VWS V14.01,2013-08-19 09:05:00,
2013-08-19 05:10:00,69.3,69.3,30.04,ENE,69,0.0,0.0,100,0.02,,-RA,0.23,VWS V14.01,2013-08-19 09:10:00,
2013-08-19 05:15:00,69.3,69.3,30.04,ENE,69,0.0,0.0,100,0.01,,-RA,0.23,VWS V14.01,2013-08-19 09:15:00,
2013-08-19 05:20:00,69.3,69.3,30.04,ENE,69,0.0,0.0,100,0.01,,-RA,0.23,VWS V14.01,2013-08-19 09:20:00,
2013-08-19 05:25:00,69.3,69.3,30.04,ENE,69,0.0,0.0,100,0.01,,-RA,0.23,VWS V14.01,2013-08-19 09:25:00,
2013-08-19 05:30:00,69.3,69.3,30.04,ENE,69,0.0,0.0,100,0.01,,-RA,0.23,VWS V14.01,2013-08-19 09:30:00,
2013-08-19 05:35:00,69.3,69.3,30.04,ENE,69,0.0,0.0,100,0.01,,-RA,0.23,VWS V14.01,2013-08-19 09:35:00,
2013-08-19 05:40:00,69.3,69.3,30.04,ENE,69,0.0,0.0,100,0.03,,-RA,0.25,VWS V14.01,2013-08-19 09:40:00,
2013-08-19 05:45:00,69.3,69.3,30.03,ENE,69,0.0,0.0,100,0.06,,-RA,0.28,VWS V14.01,2013-08-19 09:45:00,
2013-08-19 05:50:00,69.3,69.3,30.03,ENE,69,0.0,0.0,100,0.06,,-RA,0.28,VWS V14.01,2013-08-19 09:50:00,
2013-08-19 05:55:00,69.3,69.3,30.03,ENE,69,0.0,0.0,100,0.05,,-RA,0.28,VWS V14.01,2013-08-19 09:55:00,
2013-08-19 06:00:00,69.3,69.3,30.03,ENE,69,0.0,0.0,100,0.05,,-RA,0.28,VWS V14.01,2013-08-19 10:00:00,
2013-08-19 06:05:00,69.3,69.3,30.03,ENE,69,0.0,0.0,100,0.05,,-RA,0.28,VWS V14.01,2013-08-19 10:05:00,
2013-08-19 06:10:00,69.3,69.3,30.03,ENE,69,0.0,0.0,100,0.05,,-RA,0.28,VWS V14.01,2013-08-19 10:10:00,
2013-08-19 06:15:00,69.3,69.3,30.03,ENE,69,0.0,0.0,100,0.05,,-RA,0.28,VWS V14.01,2013-08-19 10:15:00,
2013-08-19 06:20:00,69.3,69.3,30.03,ENE,69,0.0,0.0,100,0.05,,-RA,0.28,VWS V14.01,2013-08-19 10:20:00,
2013-08-19 06:25:00,69.3,69.3,30.03,ENE,69,0.0,0.0,100,0.05,,-RA,0.28,VWS V14.01,2013-08-19 10:25:00,
2013-08-19 06:30:00,69.3,69.3,30.03,ENE,69,0.0,0.0,100,0.05,,-RA,0.28,VWS V14.01,2013-08-19 10:30:00,
2013-08-19 06:35:00,69.3,69.3,30.04,ENE,69,0.0,0.0,100,0.05,,-RA,0.28,VWS V14.01,2013-08-19 10:35:00,
2013-08-19 06:40:00,69.3,69.3,30.04,ENE,69,0.0,0.0,100,0.05,,-RA,0.28,VWS V14.01,2013-08-19 10:40:00,
2013-08-19 06:45:00,69.3,69.3,30.04,ENE,69,0.0,0.0,100,0.03,,OVC050,0.28,VWS V14.01,2013-08-19 10:45:00,
2013-08-19 06:50:00,69.3,69.3,30.03,ENE,69,0.0,0.0,100,0.00,,OVC050,0.28,VWS V14.01,2013-08-19 10:50:00,
2013-08-19 06:55:00,69.3,69.3,30.03,ENE,69,0.0,0.0,100,0.00,,OVC050,0.28,VWS V14.01,2013-08-19 10:55:00,
2013-08-19 07:00:00,69.1,69.1,30.03,ENE,69,0.0,0.0,100,0.00,,OVC050,0.28,VWS V14.01,2013-08-19 11:00:00,
2013-08-19 07:05:00,69.1,69.1,30.03,ENE,69,0.0,0.0,100,0.00,,OVC050,0.28,VWS V14.01,2013-08-19 11:05:00,
2013-08-19 07:10:00,69.1,69.1,30.03,ENE,69,0.0,0.0,100,0.00,,OVC050,0.28,VWS V14.01,2013-08-19 11:10:00,
2013-08-19 07:15:00,69.1,69.1,30.03,ENE,69,0.0,0.0,100,0.00,,OVC050,0.28,VWS V14.01,2013-08-19 11:15:00,
2013-08-19 07:20:00,69.1,69.1,30.03,ENE,69,0.0,0.0,100,0.00,,OVC050,0.28,VWS V14.01,2013-08-19 11:20:00,
2013-08-19 07:25:00,69.1,69.1,30.03,ENE,69,0.0,0.0,100,0.00,,OVC050,0.28,VWS V14.01,2013-08-19 11:25:00,
2013-08-19 07:30:00,69.1,69.1,30.03,ENE,69,0.0,0.0,100,0.00,,OVC050,0.28,VWS V14.01,2013-08-19 11:30:00,
2013-08-19 07:35:00,69.1,69.1,30.04,ENE,69,0.0,0.0,100,0.00,,OVC050,0.28,VWS V14.01,2013-08-19 11:35:00,
2013-08-19 07:40:00,69.1,69.1,30.04,ENE,69,0.0,0.0,100,0.00,,OVC050,0.28,VWS V14.01,2013-08-19 11:40:00,
2013-08-19 07:45:00,69.1,69.1,30.04,ENE,69,0.0,0.0,100,0.01,,OVC060,0.29,VWS V14.01,2013-08-19 11:45:00,
2013-08-19 07:50:00,68.9,68.9,30.04,ENE,69,0.0,0.0,100,0.01,,OVC060,0.29,VWS V14.01,2013-08-19 11:50:00,
2013-08-19 07:55:00,68.9,68.9,30.04,ENE,69,0.0,0.0,100,0.01,,OVC060,0.29,VWS V14.01,2013-08-19 11:55:00,
2013-08-19 08:00:00,68.8,68.8,30.04,ENE,69,0.0,0.0,100,0.01,,OVC060,0.29,VWS V14.01,2013-08-19 12:00:00,
2013-08-19 08:05:00,68.8,68.8,30.04,ENE,69,0.0,0.0,100,0.01,,OVC060,0.29,VWS V14.01,2013-08-19 12:05:00,
2013-08-19 08:10:00,68.8,68.8,30.04,ENE,69,0.0,0.0,100,0.01,,OVC060,0.29,VWS V14.01,2013-08-19 12:10:00,
2013-08-19 08:15:00,68.8,68.8,30.04,ENE,69,0.0,0.0,100,0.01,,OVC060,0.29,VWS V14.01,2013-08-19 12:15:00,
2013-08-19 08:20:00,68.9,68.9,30.05,ENE,69,0.0,0.0,100,0.01,,OVC060,0.29,VWS V14.01,2013-08-19 12:20:00,
2013-08-19 08:25:00,68.9,68.9,30.05,ENE,69,0.0,0.0,100,0.01,,OVC060,0.29,VWS V14.01,2013-08-19 12:25:00,
2013-08-19 08:30:00,68.9,68.9,30.05,ENE,69,0.0,0.0,100,0.01,,OVC060,0.29,VWS V14.01,2013-08-19 12:30:00,
2013-08-19 08:35:00,69.1,69.1,30.06,ENE,69,0.0,0.0,100,0.02,,OVC060,0.30,VWS V14.01,2013-08-19 12:35:00,
2013-08-19 08:40:00,68.9,68.9,30.06,ENE,69,0.0,0.0,100,0.11,,OVC060,0.39,VWS V14.01,2013-08-19 12:40:00,
2013-08-19 08:45:00,68.9,68.9,30.06,ENE,69,0.0,0.0,100,0.14,,OVC060,0.42,VWS V14.01,2013-08-19 12:45:00,
2013-08-19 08:50:00,68.8,68.8,30.06,ENE,69,0.0,0.0,100,0.18,,OVC060,0.47,VWS V14.01,2013-08-19 12:50:00,
2013-08-19 08:55:00,68.8,68.8,30.06,ENE,69,0.0,0.0,100,0.19,,OVC060,0.48,VWS V14.01,2013-08-19 12:55:00,
2013-08-19 09:00:00,68.8,68.8,30.06,ENE,69,0.0,0.0,100,0.20,,OVC060,0.49,VWS V14.01,2013-08-19 13:00:00,
2013-08-19 09:05:00,68.6,68.6,30.06,ENE,69,0.0,0.0,100,0.27,,OVC060,0.56,VWS V14.01,2013-08-19 13:05:00,
2013-08-19 09:10:00,68.6,68.6,30.06,ENE,69,0.0,0.0,100,0.31,,OVC060,0.60,VWS V14.01,2013-08-19 13:10:00,
2013-08-19 09:15:00,68.6,68.6,30.06,ENE,69,0.0,0.0,100,0.40,, +RA,0.69,VWS V14.01,2013-08-19 13:15:00,
2013-08-19 09:20:00,68.6,68.6,30.08,ENE,69,0.0,0.0,100,0.52,, +RA,0.81,VWS V14.01,2013-08-19 13:20:00,
2013-08-19 09:25:00,68.4,68.4,30.08,ENE,69,0.0,0.0,100,0.62,, +RA,0.91,VWS V14.01,2013-08-19 13:25:00,
2013-08-19 09:30:00,68.3,68.3,30.08,ENE,69,0.0,0.0,100,0.64,, +RA,0.93,VWS V14.01,2013-08-19 13:30:00,
2013-08-19 09:35:00,68.3,68.3,30.08,ENE,69,0.0,0.0,100,0.65,, +RA,0.94,VWS V14.01,2013-08-19 13:35:00,
2013-08-19 09:40:00,68.3,68.3,30.08,ENE,69,0.0,0.0,100,0.62,, +RA,0.94,VWS V14.01,2013-08-19 13:40:00,
2013-08-19 09:45:00,68.3,68.3,30.08,ENE,69,0.0,0.0,100,0.54,, +RA,0.94,VWS V14.01,2013-08-19 13:45:00,
2013-08-19 09:50:00,68.3,68.3,30.08,ENE,69,0.0,0.0,100,0.51,, +RA,0.94,VWS V14.01,2013-08-19 13:50:00,
2013-08-19 09:55:00,68.4,68.4,30.08,ENE,69,0.0,0.0,100,0.48,, +RA,0.95,VWS V14.01,2013-08-19 13:55:00,
2013-08-19 10:00:00,68.4,68.4,30.08,ENE,69,0.0,0.0,100,0.48,, +RA,0.96,VWS V14.01,2013-08-19 14:00:00,
2013-08-19 10:05:00,68.4,68.4,30.09,ENE,69,0.0,0.0,100,0.46,, +RA,0.96,VWS V14.01,2013-08-19 14:05:00,
2013-08-19 10:10:00,68.4,68.4,30.09,ENE,69,0.0,0.0,100,0.38,, +RA,0.96,VWS V14.01,2013-08-19 14:10:00,
2013-08-19 10:15:00,68.4,68.4,30.09,ENE,69,0.0,0.0,100,0.35,, +RA,0.97,VWS V14.01,2013-08-19 14:15:00,
2013-08-19 10:20:00,68.4,68.4,30.08,ENE,69,0.0,0.0,100,0.25,, +RA,0.97,VWS V14.01,2013-08-19 14:20:00,
2013-08-19 10:25:00,68.3,68.3,30.08,ENE,69,0.0,0.0,100,0.13,, +RA,0.97,VWS V14.01,2013-08-19 14:25:00,
2013-08-19 10:30:00,68.4,68.4,30.08,ENE,69,0.0,0.0,100,0.06,, +RA,0.98,VWS V14.01,2013-08-19 14:30:00,
2013-08-19 10:35:00,68.6,68.6,30.09,ENE,69,0.0,0.0,100,0.04,, +RA,0.98,VWS V14.01,2013-08-19 14:35:00,
2013-08-19 10:40:00,68.6,68.6,30.09,ENE,69,0.0,0.0,100,0.04,, +RA,0.98,VWS V14.01,2013-08-19 14:40:00,
2013-08-19 10:45:00,68.8,68.8,30.09,ENE,69,0.0,0.0,100,0.04,,-RA,0.98,VWS V14.01,2013-08-19 14:45:00,
2013-08-19 10:50:00,68.9,68.9,30.09,ENE,69,0.0,0.0,100,0.04,,-RA,0.98,VWS V14.01,2013-08-19 14:50:00,
2013-08-19 10:55:00,68.9,68.9,30.09,ENE,69,0.0,0.0,100,0.04,,-RA,0.98,VWS V14.01,2013-08-19 14:55:00,
2013-08-19 11:00:00,68.9,68.9,30.09,ENE,69,0.0,0.0,100,0.03,,-RA,0.99,VWS V14.01,2013-08-19 15:00:00,
2013-08-19 11:05:00,68.9,68.9,30.10,ENE,69,0.0,0.0,100,0.03,,-RA,0.99,VWS V14.01,2013-08-19 15:05:00,
2013-08-19 11:10:00,69.1,69.1,30.10,ENE,69,0.0,0.0,100,0.03,,-RA,0.99,VWS V14.01,2013-08-19 15:10:00,
2013-08-19 11:15:00,68.9,68.9,30.10,ENE,69,0.0,0.0,100,0.02,,-RA,0.99,VWS V14.01,2013-08-19 15:15:00,
2013-08-19 11:20:00,68.8,68.8,30.10,ENE,69,0.0,0.0,100,0.02,,-RA,0.99,VWS V14.01,2013-08-19 15:20:00,
2013-08-19 11:25:00,68.8,68.8,30.10,North,5,0.0,0.0,100,0.02,,-RA,0.99,VWS V14.01,2013-08-19 15:25:00,
2013-08-19 11:30:00,68.9,68.9,30.10,North,9,0.0,0.0,100,0.01,,-RA,0.99,VWS V14.01,2013-08-19 15:30:00,
2013-08-19 11:35:00,68.9,68.9,30.10,North,355,0.0,0.0,100,0.01,,-RA,0.99,VWS V14.01,2013-08-19 15:35:00,
2013-08-19 11:40:00,69.1,69.1,30.10,North,355,0.0,0.0,100,0.01,,-RA,0.99,VWS V14.01,2013-08-19 15:40:00,
2013-08-19 11:45:00,69.3,69.3,30.10,NE,40,0.0,0.0,100,0.01,,-RA,0.99,VWS V14.01,2013-08-19 15:45:00,
2013-08-19 11:50:00,69.6,69.6,30.10,NE,36,0.0,0.0,100,0.01,,-RA,0.99,VWS V14.01,2013-08-19 15:50:00,
2013-08-19 11:55:00,69.9,69.9,30.10,North,5,0.0,0.0,100,0.01,,-RA,0.99,VWS V14.01,2013-08-19 15:55:00,
2013-08-19 12:00:00,70.3,70.3,30.10,SE,130,0.0,0.0,100,0.01,,-RA,0.99,VWS V14.01,2013-08-19 16:00:00,
2013-08-19 12:05:00,70.3,70.3,30.09,East,85,0.0,0.0,100,0.00,,-RA,0.99,VWS V14.01,2013-08-19 16:05:00,
2013-08-19 12:10:00,70.3,70.3,30.09,East,93,0.0,0.0,100,0.00,,-RA,0.99,VWS V14.01,2013-08-19 16:10:00,
2013-08-19 12:15:00,70.1,70.1,30.09,NE,44,0.0,0.0,100,0.00,,-RA,0.99,VWS V14.01,2013-08-19 16:15:00,
2013-08-19 12:20:00,69.9,69.9,30.09,WNW,303,0.0,0.0,100,0.00,,-RA,0.99,VWS V14.01,2013-08-19 16:20:00,
2013-08-19 12:25:00,69.8,69.8,30.09,NW,308,0.0,0.0,100,0.00,,-RA,0.99,VWS V14.01,2013-08-19 16:25:00,
2013-08-19 12:30:00,69.8,69.8,30.09,NW,319,0.0,0.0,100,0.00,,-RA,0.99,VWS V14.01,2013-08-19 16:30:00,
2013-08-19 12:35:00,70.1,70.1,30.09,North,351,0.0,0.0,100,0.00,,-RA,0.99,VWS V14.01,2013-08-19 16:35:00,
2013-08-19 12:40:00,70.1,70.1,30.09,NE,40,0.0,0.0,100,0.00,,-RA,0.99,VWS V14.01,2013-08-19 16:40:00,
2013-08-19 12:45:00,69.9,69.9,30.09,NE,40,0.0,0.0,100,0.00,,-RA,0.99,VWS V14.01,2013-08-19 16:45:00,
2013-08-19 12:50:00,70.3,70.3,30.09,NE,41,0.0,0.0,100,0.00,,-RA,0.99,VWS V14.01,2013-08-19 16:50:00,
2013-08-19 12:55:00,70.3,70.3,30.09,NE,41,0.0,0.0,100,0.00,,-RA,0.99,VWS V14.01,2013-08-19 16:55:00,
2013-08-19 13:00:00,70.4,70.4,30.09,South,174,0.0,0.0,100,0.00,,-RA,0.99,VWS V14.01,2013-08-19 17:00:00,
2013-08-19 13:05:00,70.4,70.4,30.08,South,176,0.0,0.0,100,0.00,,-RA,0.99,VWS V14.01,2013-08-19 17:05:00,
2013-08-19 13:10:00,70.8,70.8,30.08,SE,133,0.0,0.0,100,0.00,,-RA,0.99,VWS V14.01,2013-08-19 17:10:00,
2013-08-19 13:15:00,70.9,70.9,30.08,South,178,0.0,0.0,100,0.00,,-RA,0.99,VWS V14.01,2013-08-19 17:15:00,
2013-08-19 13:20:00,70.9,70.9,30.08,SSE,159,0.0,0.0,100,0.00,,-RA,0.99,VWS V14.01,2013-08-19 17:20:00,
2013-08-19 13:25:00,71.1,71.1,30.08,SE,138,0.0,0.0,100,0.00,,-RA,0.99,VWS V14.01,2013-08-19 17:25:00,
2013-08-19 13:30:00,71.3,70.4,30.08,SSW,213,0.0,0.0,97,0.00,,-RA,0.99,VWS V14.01,2013-08-19 17:30:00,
2013-08-19 13:35:00,71.3,69.8,30.08,South,190,0.0,0.0,95,0.00,,-RA,0.99,VWS V14.01,2013-08-19 17:35:00,
2013-08-19 13:40:00,71.3,69.8,30.08,WNW,287,0.0,0.0,95,0.00,,-RA,0.99,VWS V14.01,2013-08-19 17:40:00,
2013-08-19 13:45:00,71.5,69.7,30.08,WNW,286,0.0,0.0,94,0.00,,OVC065,0.99,VWS V14.01,2013-08-19 17:45:00,
2013-08-19 13:50:00,71.3,69.2,30.08,WNW,286,0.0,0.0,93,0.00,,OVC065,0.99,VWS V14.01,2013-08-19 17:50:00,
2013-08-19 13:55:00,71.5,69.7,30.08,WNW,290,0.0,0.0,94,0.00,,OVC065,0.99,VWS V14.01,2013-08-19 17:55:00,
2013-08-19 14:00:00,71.6,69.8,30.08,NE,40,0.0,0.0,94,0.00,,OVC065,0.99,VWS V14.01,2013-08-19 18:00:00,
2013-08-19 14:05:00,71.8,70.3,30.08,NE,49,0.0,0.0,95,0.00,,OVC060,0.99,VWS V14.01,2013-08-19 18:05:00,
2013-08-19 14:10:00,72.3,70.8,30.08,NE,49,0.0,0.0,95,0.00,,OVC060,0.99,VWS V14.01,2013-08-19 18:10:00,
2013-08-19 14:15:00,72.5,70.7,30.08,North,5,0.0,0.0,94,0.00,,OVC060,0.99,VWS V14.01,2013-08-19 18:15:00,
2013-08-19 14:20:00,73.0,71.2,30.06,SE,127,0.0,0.0,94,0.00,,OVC060,0.99,VWS V14.01,2013-08-19 18:20:00,
2013-08-19 14:25:00,73.2,70.4,30.06,SW,215,0.0,0.0,91,0.00,,OVC060,0.99,VWS V14.01,2013-08-19 18:25:00,
2013-08-19 14:30:00,73.7,70.3,30.06,SE,142,0.0,0.0,89,0.00,,OVC060,0.99,VWS V14.01,2013-08-19 18:30:00,
2013-08-19 14:35:00,73.9,70.1,30.06,SE,130,0.0,0.0,88,0.00,,OVC060,0.99,VWS V14.01,2013-08-19 18:35:00,
2013-08-19 14:40:00,74.0,71.2,30.06,SE,130,0.0,0.0,91,0.00,,OVC060,0.99,VWS V14.01,2013-08-19 18:40:00,
2013-08-19 14:45:00,74.0,70.2,30.06,ESE,118,0.0,0.0,88,0.00,,OVC060,0.99,VWS V14.01,2013-08-19 18:45:00,
2013-08-19 14:50:00,74.2,70.4,30.05,WSW,244,0.0,2.0,88,0.00,,OVC060,0.99,VWS V14.01,2013-08-19 18:50:00,
2013-08-19 14:55:00,74.2,70.4,30.05,NNW,327,1.0,4.0,88,0.00,,OVC060,0.99,VWS V14.01,2013-08-19 18:55:00,
2013-08-19 15:00:00,74.2,70.8,30.05,NE,51,0.0,3.0,89,0.00,,OVC060,0.99,VWS V14.01,2013-08-19 19:00:00,
2013-08-19 15:05:00,74.4,70.6,30.04,ESE,112,0.0,1.0,88,0.00,,OVC060,0.99,VWS V14.01,2013-08-19 19:05:00,
2013-08-19 15:10:00,74.2,70.4,30.04,West,259,0.0,3.0,88,0.00,,OVC060,0.99,VWS V14.01,2013-08-19 19:10:00,
2013-08-19 15:15:00,74.6,70.5,30.04,SSE,165,0.0,3.0,87,0.00,,OVC060,0.99,VWS V14.01,2013-08-19 19:15:00,
2013-08-19 15:20:00,74.7,69.9,30.04,South,174,0.0,1.0,85,0.00,,OVC060,0.99,VWS V14.01,2013-08-19 19:20:00,
2013-08-19 15:25:00,74.9,70.1,30.04,SSW,195,0.0,2.0,85,0.00,,OVC060,0.99,VWS V14.01,2013-08-19 19:25:00,
2013-08-19 15:30:00,74.6,68.4,30.04,South,181,0.0,2.0,81,0.00,,OVC060,0.99,VWS V14.01,2013-08-19 19:30:00,
2013-08-19 15:35:00,74.6,69.1,30.03,ESE,117,0.0,0.0,83,0.00,,OVC060,0.99,VWS V14.01,2013-08-19 19:35:00,
2013-08-19 15:40:00,74.7,69.2,30.03,ESE,119,0.0,1.0,83,0.00,,OVC060,0.99,VWS V14.01,2013-08-19 19:40:00,
2013-08-19 15:45:00,74.7,69.6,30.03,ESE,119,0.0,0.0,84,0.00,,OVC060,0.99,VWS V14.01,2013-08-19 19:45:00,
2013-08-19 15:50:00,74.9,70.1,30.03,SSE,161,0.0,1.0,85,0.00,,OVC055,0.99,VWS V14.01,2013-08-19 19:50:00,
2013-08-19 15:55:00,74.9,69.7,30.03,SSE,161,0.0,0.0,84,0.00,,OVC055,0.99,VWS V14.01,2013-08-19 19:55:00,
2013-08-19 16:00:00,74.9,69.7,30.03,SSE,161,0.0,0.0,84,0.00,,OVC055,0.99,VWS V14.01,2013-08-19 20:00:00,
2013-08-19 16:05:00,74.9,69.7,30.03,SSE,157,0.0,0.0,84,0.00,,OVC055,0.99,VWS V14.01,2013-08-19 20:05:00,
2013-08-19 16:10:00,74.7,68.1,30.03,SSE,157,0.0,0.0,80,0.00,,OVC055,0.99,VWS V14.01,2013-08-19 20:10:00,
2013-08-19 16:15:00,74.7,68.5,30.03,SSE,155,0.0,1.0,81,0.00,,OVC055,0.99,VWS V14.01,2013-08-19 20:15:00,
2013-08-19 16:20:00,74.7,68.1,30.03,SSE,155,0.0,0.0,80,0.00,,OVC055,0.99,VWS V14.01,2013-08-19 20:20:00,
2013-08-19 16:25:00,74.6,68.0,30.03,SE,142,0.0,1.0,80,0.00,,OVC055,0.99,VWS V14.01,2013-08-19 20:25:00,
2013-08-19 16:30:00,74.6,67.7,30.03,SE,142,0.0,1.0,79,0.00,,OVC055,0.99,VWS V14.01,2013-08-19 20:30:00,
2013-08-19 16:35:00,74.6,68.4,30.03,SE,142,0.0,0.0,81,0.00,,OVC055,0.99,VWS V14.01,2013-08-19 20:35:00,
2013-08-19 16:40:00,74.6,68.8,30.03,SE,142,0.0,0.0,82,0.00,,OVC055,0.99,VWS V14.01,2013-08-19 20:40:00,
2013-08-19 16:45:00,74.6,68.8,30.03,SSW,212,1.0,1.0,82,0.00,,OVC055,0.99,VWS V14.01,2013-08-19 20:45:00,
2013-08-19 16:50:00,74.6,68.8,30.02,South,185,0.0,0.0,82,0.00,,BKN060,0.99,VWS V14.01,2013-08-19 20:50:00,
2013-08-19 16:54:00,74.7,68.8,30.02,South,182,0.0,1.0,82,0.00,,BKN060,0.99,VWS V14.01,2013-08-19 20:54:00,
2013-08-19 16:59:00,74.7,68.1,30.02,South,190,0.0,0.0,80,0.00,,BKN060,0.99,VWS V14.01,2013-08-19 20:59:00,
2013-08-19 17:04:00,74.9,68.7,30.01,SSW,209,0.0,1.0,81,0.00,,BKN060,0.99,VWS V14.01,2013-08-19 21:04:00,
2013-08-19 17:09:00,75.3,68.7,30.01,NW,309,0.0,0.0,80,0.00,,BKN060,0.99,VWS V14.01,2013-08-19 21:09:00,
2013-08-19 17:14:00,75.4,68.4,30.01,WNW,301,0.0,1.0,79,0.00,,BKN060,0.99,VWS V14.01,2013-08-19 21:14:00,
2013-08-19 17:19:00,75.6,68.6,30.01,SSW,211,0.0,1.0,79,0.00,,OVC055,0.99,VWS V14.01,2013-08-19 21:19:00,
2013-08-19 17:24:00,75.6,68.3,30.01,SSW,211,0.0,1.0,78,0.00,,OVC055,0.99,VWS V14.01,2013-08-19 21:24:00,
2013-08-19 17:29:00,76.0,68.7,30.01,East,83,0.0,4.0,78,0.00,,OVC055,0.99,VWS V14.01,2013-08-19 21:29:00,
2013-08-19 17:34:00,76.1,68.4,30.00,SW,227,0.0,1.0,77,0.00,,OVC055,0.99,VWS V14.01,2013-08-19 21:34:00,
2013-08-19 17:39:00,76.1,68.8,30.00,South,175,0.0,1.0,78,0.00,,OVC055,0.99,VWS V14.01,2013-08-19 21:39:00,
2013-08-19 17:44:00,76.0,69.0,30.00,South,175,0.0,0.0,79,0.00,,OVC055,0.99,VWS V14.01,2013-08-19 21:44:00,
2013-08-19 17:49:00,76.0,69.4,30.01,SSE,165,0.0,1.0,80,0.00,,OVC055,0.99,VWS V14.01,2013-08-19 21:49:00,
2013-08-19 17:54:00,76.0,69.4,30.01,SSW,196,0.0,1.0,80,0.00,,OVC055,0.99,VWS V14.01,2013-08-19 21:54:00,
2013-08-19 17:59:00,76.1,69.1,30.01,East,98,0.0,1.0,79,0.00,,OVC055,0.99,VWS V14.01,2013-08-19 21:59:00,
2013-08-19 18:04:00,76.0,70.1,30.01,WNW,294,0.0,1.0,82,0.00,,OVC050,0.99,VWS V14.01,2013-08-19 22:04:00,
2013-08-19 18:09:00,75.8,69.9,30.01,SW,233,1.0,1.0,82,0.00,,OVC050,0.99,VWS V14.01,2013-08-19 22:09:00,
2013-08-19 18:14:00,75.6,69.7,30.01,East,90,0.0,1.0,82,0.00,,OVC050,0.99,VWS V14.01,2013-08-19 22:14:00,
2013-08-19 18:19:00,75.4,69.9,30.01,ESE,107,0.0,0.0,83,0.00,,OVC050,0.99,VWS V14.01,2013-08-19 22:19:00,
2013-08-19 18:24:00,75.3,70.1,30.01,ESE,107,0.0,0.0,84,0.00,,OVC050,0.99,VWS V14.01,2013-08-19 22:24:00,
2013-08-19 18:29:00,75.3,69.4,30.01,ESE,107,0.0,0.0,82,0.00,,OVC050,0.99,VWS V14.01,2013-08-19 22:29:00,
2013-08-19 18:34:00,75.3,68.7,30.01,SE,129,0.0,0.0,80,0.00,,OVC050,0.99,VWS V14.01,2013-08-19 22:34:00,
2013-08-19 18:39:00,74.9,67.9,30.01,SE,129,0.0,0.0,79,0.00,,OVC050,0.99,VWS V14.01,2013-08-19 22:39:00,
2013-08-19 18:44:00,74.6,68.0,30.01,SE,129,0.0,0.0,80,0.00,,OVC050,0.99,VWS V14.01,2013-08-19 22:44:00,
2013-08-19 18:49:00,74.2,68.4,30.01,SE,129,0.0,0.0,82,0.00,,BKN055,0.99,VWS V14.01,2013-08-19 22:49:00,
2013-08-19 18:54:00,73.9,68.4,30.01,SE,129,0.0,0.0,83,0.00,,BKN055,0.99,VWS V14.01,2013-08-19 22:54:00,
2013-08-19 18:59:00,73.3,68.2,30.01,SE,129,0.0,0.0,84,0.00,,BKN055,0.99,VWS V14.01,2013-08-19 22:59:00,
2013-08-19 19:04:00,73.0,68.2,30.01,SE,129,0.0,0.0,85,0.00,,BKN055,0.99,VWS V14.01,2013-08-19 23:04:00,
2013-08-19 19:09:00,72.5,68.1,30.01,SE,129,0.0,0.0,86,0.00,,BKN055,0.99,VWS V14.01,2013-08-19 23:09:00,
2013-08-19 19:14:00,72.3,68.2,30.01,SE,129,0.0,0.0,87,0.00,,BKN055,0.99,VWS V14.01,2013-08-19 23:14:00,
2013-08-19 19:19:00,72.1,68.3,30.02,SE,129,0.0,0.0,88,0.00,,BKN055,0.99,VWS V14.01,2013-08-19 23:19:00,
2013-08-19 19:24:00,71.8,68.4,30.02,SE,129,0.0,0.0,89,0.00,,BKN055,0.99,VWS V14.01,2013-08-19 23:24:00,
2013-08-19 19:29:00,71.6,68.8,30.02,SE,129,0.0,0.0,91,0.00,,BKN055,0.99,VWS V14.01,2013-08-19 23:29:00,
2013-08-19 19:34:00,71.3,68.5,30.02,SE,129,0.0,0.0,91,0.00,,BKN055,0.99,VWS V14.01,2013-08-19 23:34:00,
2013-08-19 19:39:00,71.3,68.9,30.02,SE,129,0.0,0.0,92,0.00,,BKN055,0.99,VWS V14.01,2013-08-19 23:39:00,
2013-08-19 19:44:00,70.9,68.5,30.02,SE,129,0.0,0.0,92,0.00,,BKN055,0.99,VWS V14.01,2013-08-19 23:44:00,
2013-08-19 19:49:00,70.8,68.4,30.02,SE,129,0.0,0.0,92,0.00,,BKN021,0.99,VWS V14.01,2013-08-19 23:49:00,
2013-08-19 19:54:00,70.6,68.5,30.02,SE,129,0.0,0.0,93,0.00,,BKN021,0.99,VWS V14.01,2013-08-19 23:54:00,
2013-08-19 19:59:00,70.4,68.3,30.02,SE,129,0.0,0.0,93,0.00,,BKN021,0.99,VWS V14.01,2013-08-19 23:59:00,
2013-08-19 20:04:00,70.3,67.9,30.03,SE,129,0.0,0.0,92,0.00,,FEW028,0.99,VWS V14.01,2013-08-20 00:04:00,
2013-08-19 20:09:00,70.3,68.2,30.03,SE,129,0.0,0.0,93,0.00,,FEW028,0.99,VWS V14.01,2013-08-20 00:09:00,
2013-08-19 20:14:00,70.1,68.0,30.03,SE,129,0.0,0.0,93,0.00,,FEW028,0.99,VWS V14.01,2013-08-20 00:14:00,
2013-08-19 20:19:00,70.1,68.3,30.02,SE,129,0.0,0.0,94,0.00,,CLR,0.99,VWS V14.01,2013-08-20 00:19:00,
2013-08-19 20:24:00,69.9,68.1,30.02,SE,129,0.0,0.0,94,0.00,,CLR,0.99,VWS V14.01,2013-08-20 00:24:00,
2013-08-19 20:29:00,69.8,67.7,30.02,SE,129,0.0,0.0,93,0.00,,CLR,0.99,VWS V14.01,2013-08-20 00:29:00,
2013-08-19 20:34:00,69.8,68.0,30.03,SE,129,0.0,0.0,94,0.00,,CLR,0.99,VWS V14.01,2013-08-20 00:34:00,
2013-08-19 20:39:00,69.8,68.0,30.03,SE,129,0.0,0.0,94,0.00,,CLR,0.99,VWS V14.01,2013-08-20 00:39:00,
2013-08-19 20:44:00,69.8,68.0,30.03,SE,129,0.0,0.0,94,0.00,,CLR,0.99,VWS V14.01,2013-08-20 00:44:00,
2013-08-19 20:49:00,69.6,67.8,30.03,SE,129,0.0,0.0,94,0.00,,CLR,0.99,VWS V14.01,2013-08-20 00:49:00,
2013-08-19 20:54:00,69.4,67.6,30.03,SE,129,0.0,0.0,94,0.00,,CLR,0.99,VWS V14.01,2013-08-20 00:54:00,
2013-08-19 20:59:00,69.3,67.5,30.03,SE,129,0.0,0.0,94,0.00,,CLR,0.99,VWS V14.01,2013-08-20 00:59:00,
2013-08-19 21:04:00,69.1,67.3,30.03,SE,129,0.0,0.0,94,0.00,,CLR,0.99,VWS V14.01,2013-08-20 01:04:00,
2013-08-19 21:09:00,68.9,67.1,30.03,SE,129,0.0,0.0,94,0.00,,CLR,0.99,VWS V14.01,2013-08-20 01:09:00,
2013-08-19 21:14:00,68.9,67.1,30.03,SE,129,0.0,0.0,94,0.00,,CLR,0.99,VWS V14.01,2013-08-20 01:14:00,
2013-08-19 21:19:00,68.9,67.1,30.03,SE,129,0.0,0.0,94,0.00,,CLR,0.99,VWS V14.01,2013-08-20 01:19:00,
2013-08-19 21:24:00,68.8,67.0,30.03,SE,129,0.0,0.0,94,0.00,,CLR,0.99,VWS V14.01,2013-08-20 01:24:00,
2013-08-19 21:29:00,68.8,67.3,30.03,SE,129,0.0,0.0,95,0.00,,CLR,0.99,VWS V14.01,2013-08-20 01:29:00,
2013-08-19 21:34:00,68.9,67.4,30.03,SE,129,0.0,0.0,95,0.00,,CLR,0.99,VWS V14.01,2013-08-20 01:34:00,
2013-08-19 21:39:00,68.8,67.3,30.03,SE,129,0.0,0.0,95,0.00,,CLR,0.99,VWS V14.01,2013-08-20 01:39:00,
2013-08-19 21:44:00,68.8,67.3,30.03,SE,129,0.0,0.0,95,0.00,,CLR,0.99,VWS V14.01,2013-08-20 01:44:00,
2013-08-19 21:49:00,68.8,67.3,30.04,SE,129,0.0,0.0,95,0.00,,CLR,0.99,VWS V14.01,2013-08-20 01:49:00,
2013-08-19 21:54:00,68.8,67.3,30.04,SE,129,0.0,0.0,95,0.00,,CLR,0.99,VWS V14.01,2013-08-20 01:54:00,
2013-08-19 21:59:00,68.8,67.3,30.04,SE,129,0.0,0.0,95,0.00,,CLR,0.99,VWS V14.01,2013-08-20 01:59:00,
2013-08-19 22:04:00,68.8,67.6,30.04,SE,129,0.0,0.0,96,0.00,,CLR,0.99,VWS V14.01,2013-08-20 02:04:00,
2013-08-19 22:09:00,68.8,67.6,30.04,SE,129,0.0,0.0,96,0.00,,CLR,0.99,VWS V14.01,2013-08-20 02:09:00,
2013-08-19 22:14:00,68.8,67.6,30.04,SE,129,0.0,0.0,96,0.00,,CLR,0.99,VWS V14.01,2013-08-20 02:14:00,
2013-08-19 22:19:00,68.8,67.6,30.04,SE,129,0.0,0.0,96,0.00,,CLR,0.99,VWS V14.01,2013-08-20 02:19:00,
2013-08-19 22:24:00,68.8,67.6,30.04,SE,129,0.0,0.0,96,0.00,,CLR,0.99,VWS V14.01,2013-08-20 02:24:00,
2013-08-19 22:29:00,68.8,67.6,30.04,SE,129,0.0,0.0,96,0.00,,CLR,0.99,VWS V14.01,2013-08-20 02:29:00,
2013-08-19 22:34:00,68.9,68.0,30.05,SE,129,0.0,0.0,97,0.00,,CLR,0.99,VWS V14.01,2013-08-20 02:34:00,
2013-08-19 22:39:00,68.9,68.0,30.05,SE,129,0.0,0.0,97,0.00,,CLR,0.99,VWS V14.01,2013-08-20 02:39:00,
2013-08-19 22:44:00,69.1,68.2,30.05,SE,129,0.0,0.0,97,0.00,,CLR,0.99,VWS V14.01,2013-08-20 02:44:00,
2013-08-19 22:49:00,69.1,68.2,30.05,SE,129,0.0,0.0,97,0.00,,CLR,0.99,VWS V14.01,2013-08-20 02:49:00,
2013-08-19 22:54:00,69.1,68.2,30.05,SE,129,0.0,0.0,97,0.00,,CLR,0.99,VWS V14.01,2013-08-20 02:54:00,
2013-08-19 22:59:00,69.1,68.2,30.05,SE,129,0.0,0.0,97,0.00,,CLR,0.99,VWS V14.01,2013-08-20 02:59:00,
2013-08-19 23:04:00,69.1,68.2,30.05,SE,129,0.0,0.0,97,0.00,,CLR,0.99,VWS V14.01,2013-08-20 03:04:00,
2013-08-19 23:09:00,69.1,68.2,30.05,SE,129,0.0,0.0,97,0.00,,CLR,0.99,VWS V14.01,2013-08-20 03:09:00,
2013-08-19 23:14:00,69.3,68.4,30.05,SE,129,0.0,0.0,97,0.00,,CLR,0.99,VWS V14.01,2013-08-20 03:14:00,
2013-08-19 23:19:00,69.3,68.4,30.05,SE,129,0.0,0.0,97,0.00,,CLR,0.99,VWS V14.01,2013-08-20 03:19:00,
2013-08-19 23:24:00,69.3,68.4,30.05,SE,129,0.0,0.0,97,0.00,,CLR,0.99,VWS V14.01,2013-08-20 03:24:00,
2013-08-19 23:29:00,69.3,68.4,30.05,SE,129,0.0,0.0,97,0.00,,CLR,0.99,VWS V14.01,2013-08-20 03:29:00,
2013-08-19 23:34:00,69.4,68.5,30.06,SE,129,0.0,0.0,97,0.00,,CLR,0.99,VWS V14.01,2013-08-20 03:34:00,
2013-08-19 23:39:00,69.4,68.5,30.06,SE,129,0.0,0.0,97,0.00,,CLR,0.99,VWS V14.01,2013-08-20 03:39:00,
2013-08-19 23:44:00,69.4,68.5,30.06,SE,129,0.0,0.0,97,0.00,,CLR,0.99,VWS V14.01,2013-08-20 03:44:00,
2013-08-19 23:49:00,69.4,68.5,30.06,SE,129,0.0,0.0,97,0.00,,CLR,0.99,VWS V14.01,2013-08-20 03:49:00,
2013-08-19 23:54:00,69.4,68.5,30.06,SE,129,0.0,0.0,97,0.00,,CLR,0.99,VWS V14.01,2013-08-20 03:54:00,
2013-08-19 23:59:00,69.4,68.5,30.06,SE,129,0.0,0.0,97,0.00,,CLR,0.99,VWS V14.01,2013-08-20 03:59:00,